South Saint Paul, MN

6:57 PM CST on March 06, 2015 (GMT -0600)
South Saint Paul Municipal-Fleming | Change Station
CLOSE
Current Station
Airport
Location: South St. Paul,
Elevation: 820 ft
Nearby Weather Stations

Elev 820 ft 44.86 °N, 93.03 °W | Updated 27 minutes ago

Partly Cloudy
Partly Cloudy
33 °F
Feels Like 29 °F
N
5
Wind Variable Wind from West

Today
High -- | Low -- °F
--% Chance of Precip.
Yesterday
High -- | Low -- °F
Precip. -- in
6:41 AM 6:06 PM
Full, 99% visible
Pressure 30.06 in
Visibility 10.0 miles
Clouds Clear
Windchill 29 °F
Dew Point 17 °F
Humidity 51%
Rainfall 0.00 in
Snow Depth Not available.
UV 0 out of 12
Pollen .20 out of 12
Air Quality Not available.
Flu Activity Not available.
METAR KSGS 070030Z AUTO 27004KT 10SM CLR 01/M08 A3006 RMK AO2 T00071084

More Conditions Fewer Conditions

Pressure 30.06 in
Visibility 10.0 miles
Clouds Clear
Windchill 29 °F
Dew Point 17 °F
Humidity 51%
Rainfall 0.00 in
Snow Depth Not available.
UV 0 out of 12
Pollen .20 out of 12
Air Quality Not available.
Flu Activity Not available.
METAR KSGS 070030Z AUTO 27004KT 10SM CLR 01/M08 A3006 RMK AO2 T00071084

More Conditions Fewer Conditions

10-Day Weather Forecast

Almanac

Astronomy

Mar. 06, 2015 Rise Set
Actual Time
Civil Twilight
Nautical Twilight
Astronomical Twilight
Moon
Length of Visible Light
Length of Day
Tomorrow will be .
, % of the Moon is Illuminated

Today's Extremes

State Highs State Lows

Community

WunderPhotos

Upload Photos

1,803,469 photos uploaded!

WunderBlogs® & News

Nearby

Air Quality

  Air Quality AQ Index Pollutant
Not available.

Snow Depth

Station Depth Elevation

Earthquake Activity

City Distance Mag. Time & Date
Minimum magnitude displayed is 2.5.

Coastal Water Temperatures

Place Temperature

Nearby Weather Stations